SAS925 EKCH-KIAD
Flight info
| Callsign | SAS925 |
|---|---|
| Flight time | N/A |
| Altitude | 38000 |
| Route | GOLGA DCT AMSEV DCT GUNPA/M084F380 DCT 62N010W 61N020W 5930N03000W 58N040W 56N050W DCT JANJO/N0489F380 DCT ANCER/N0486F400 DCT ART DCT PSB WAYNZ1 |
| Aircraft | A359/H-SABDE1E3FGHIJ1J2J3J4J5M1P2RWXYZ/LB2D1 |
Departure
| Time | 2026-04-23 00:38 |
|---|---|
| Airport | Copenhagen Kastrup Airport (EKCH) |
Arrival
| Time | N/A |
|---|---|
| Airport | Washington Dulles International Airport (KIAD) |
| Time | Latitude | Longitude | Altitude | Speed | Heading |
|---|---|---|---|---|---|
| 2026-04-23 00:13 | 55.62432 | 12.65058 | 30 ft | 0 kts | 269° |
| 2026-04-23 00:27 | 55.62432 | 12.65060 | 30 ft | 2 kts | 269° |
| 2026-04-23 00:27 | 55.62433 | 12.65105 | 28 ft | 4 kts | 269° |
| 2026-04-23 00:27 | 55.62433 | 12.65145 | 27 ft | 4 kts | 262° |
| 2026-04-23 00:27 | 55.62443 | 12.65179 | 27 ft | 4 kts | 201° |
| 2026-04-23 00:28 | 55.62468 | 12.65186 | 29 ft | 3 kts | 179° |
| 2026-04-23 00:28 | 55.62494 | 12.65185 | 27 ft | 4 kts | 179° |
| 2026-04-23 00:28 | 55.62520 | 12.65184 | 28 ft | 2 kts | 179° |
| 2026-04-23 00:28 | 55.62522 | 12.65184 | 28 ft | 0 kts | 179° |
| 2026-04-23 00:33 | 55.62516 | 12.65184 | 27 ft | 4 kts | 179° |
| 2026-04-23 00:34 | 55.62459 | 12.65197 | 27 ft | 12 kts | 174° |
| 2026-04-23 00:34 | 55.62347 | 12.65204 | 30 ft | 20 kts | 182° |
| 2026-04-23 00:34 | 55.62194 | 12.65160 | 30 ft | 25 kts | 208° |
| 2026-04-23 00:34 | 55.62038 | 12.64985 | 30 ft | 27 kts | 212° |
| 2026-04-23 00:35 | 55.61877 | 12.64804 | 30 ft | 27 kts | 213° |
| 2026-04-23 00:35 | 55.61722 | 12.64612 | 30 ft | 27 kts | 213° |
| 2026-04-23 00:35 | 55.61562 | 12.64432 | 30 ft | 27 kts | 212° |
| 2026-04-23 00:35 | 55.61402 | 12.64254 | 30 ft | 27 kts | 212° |
| 2026-04-23 00:36 | 55.61241 | 12.64066 | 30 ft | 28 kts | 213° |
| 2026-04-23 00:36 | 55.61080 | 12.63878 | 30 ft | 28 kts | 213° |
| 2026-04-23 00:36 | 55.60915 | 12.63692 | 30 ft | 28 kts | 212° |
| 2026-04-23 00:36 | 55.60749 | 12.63507 | 30 ft | 28 kts | 212° |
| 2026-04-23 00:37 | 55.60592 | 12.63300 | 29 ft | 28 kts | 222° |
| 2026-04-23 00:37 | 55.60448 | 12.63118 | 30 ft | 9 kts | 174° |
| 2026-04-23 00:37 | 55.60395 | 12.63187 | 30 ft | 13 kts | 138° |
| 2026-04-23 00:37 | 55.60372 | 12.63369 | 32 ft | 20 kts | 58° |
| 2026-04-23 00:38 | 55.60566 | 12.63686 | 30 ft | 66 kts | 41° |
| 2026-04-23 00:38 | 55.61064 | 12.64463 | 29 ft | 123 kts | 41° |
| 2026-04-23 00:38 | 55.61823 | 12.65637 | 48 ft | 168 kts | 41° |
| 2026-04-23 00:38 | 55.62533 | 12.67025 | 894 ft | 143 kts | 46° |
| 2026-04-23 00:39 | 55.63282 | 12.68300 | 1233 ft | 156 kts | 36° |
| 2026-04-23 00:39 | 55.64182 | 12.69536 | 1552 ft | 172 kts | 32° |
| 2026-04-23 00:39 | 55.65315 | 12.70377 | 1944 ft | 183 kts | 9° |
| 2026-04-23 00:39 | 55.66623 | 12.70384 | 2477 ft | 192 kts | 358° |
| 2026-04-23 00:40 | 55.67997 | 12.70205 | 2906 ft | 206 kts | 358° |
| 2026-04-23 00:40 | 55.69500 | 12.70016 | 3197 ft | 227 kts | 358° |
| 2026-04-23 00:40 | 55.71106 | 12.69830 | 3725 ft | 235 kts | 358° |
| 2026-04-23 00:40 | 55.72751 | 12.69646 | 4409 ft | 238 kts | 357° |
| 2026-04-23 00:41 | 55.74417 | 12.69464 | 5092 ft | 241 kts | 356° |
| 2026-04-23 00:41 | 55.76109 | 12.69283 | 5786 ft | 244 kts | 355° |
| 2026-04-23 00:41 | 55.77804 | 12.69104 | 6516 ft | 246 kts | 355° |
| 2026-04-23 00:41 | 55.79530 | 12.68909 | 7247 ft | 248 kts | 353° |
| 2026-04-23 00:42 | 55.81209 | 12.68238 | 7944 ft | 250 kts | 337° |
| 2026-04-23 00:42 | 55.82653 | 12.66485 | 8665 ft | 256 kts | 315° |
| 2026-04-23 00:42 | 55.83618 | 12.63802 | 9398 ft | 263 kts | 297° |
| 2026-04-23 00:42 | 55.84088 | 12.61789 | 9897 ft | 267 kts | 295° |
| 2026-04-23 00:43 | 55.84986 | 12.57630 | 10635 ft | 280 kts | 295° |
| 2026-04-23 00:43 | 55.85472 | 12.55395 | 10827 ft | 292 kts | 295° |
| 2026-04-23 00:43 | 55.86234 | 12.51924 | 11165 ft | 310 kts | 295° |
| 2026-04-23 00:43 | 55.87042 | 12.48263 | 11472 ft | 326 kts | 295° |
| 2026-04-23 00:44 | 55.87885 | 12.44440 | 11992 ft | 335 kts | 295° |
| 2026-04-23 00:44 | 55.88743 | 12.40542 | 12587 ft | 341 kts | 295° |
| 2026-04-23 00:44 | 55.89617 | 12.36579 | 13186 ft | 347 kts | 295° |
| 2026-04-23 00:44 | 55.90652 | 12.32746 | 13816 ft | 348 kts | 304° |
| 2026-04-23 00:45 | 55.92021 | 12.29100 | 14416 ft | 352 kts | 308° |
| 2026-04-23 00:45 | 55.93447 | 12.25513 | 14986 ft | 356 kts | 308° |
| 2026-04-23 00:45 | 55.94867 | 12.21944 | 15544 ft | 360 kts | 308° |
| 2026-04-23 00:45 | 55.96324 | 12.18267 | 16125 ft | 364 kts | 308° |
| 2026-04-23 00:46 | 55.97788 | 12.14560 | 16685 ft | 368 kts | 308° |
| 2026-04-23 00:46 | 55.99269 | 12.10799 | 17254 ft | 372 kts | 308° |
| 2026-04-23 00:46 | 56.00769 | 12.06982 | 17806 ft | 377 kts | 308° |
| 2026-04-23 00:46 | 56.02298 | 12.03135 | 18353 ft | 381 kts | 309° |
| 2026-04-23 00:47 | 56.04099 | 11.99666 | 18824 ft | 381 kts | 323° |
| 2026-04-23 00:47 | 56.06295 | 11.97008 | 19323 ft | 383 kts | 332° |
| 2026-04-23 00:47 | 56.08614 | 11.94648 | 19828 ft | 386 kts | 333° |
| 2026-04-23 00:47 | 56.10972 | 11.92286 | 20357 ft | 390 kts | 333° |
| 2026-04-23 00:48 | 56.13358 | 11.89884 | 20890 ft | 394 kts | 333° |
| 2026-04-23 00:48 | 56.15763 | 11.87451 | 21403 ft | 398 kts | 333° |
| 2026-04-23 00:48 | 56.18185 | 11.84992 | 21911 ft | 402 kts | 333° |
| 2026-04-23 00:48 | 56.20632 | 11.82501 | 22424 ft | 406 kts | 333° |
| 2026-04-23 00:49 | 56.23094 | 11.79990 | 22925 ft | 410 kts | 333° |
| 2026-04-23 00:49 | 56.25591 | 11.77437 | 23437 ft | 414 kts | 333° |
| 2026-04-23 00:49 | 56.28102 | 11.74867 | 23911 ft | 417 kts | 333° |
| 2026-04-23 00:49 | 56.30636 | 11.72258 | 24328 ft | 421 kts | 333° |
| 2026-04-23 00:50 | 56.33047 | 11.69332 | 24738 ft | 427 kts | 324° |
| 2026-04-23 00:50 | 56.35247 | 11.65658 | 25184 ft | 433 kts | 317° |
| 2026-04-23 00:50 | 56.37313 | 11.61699 | 25603 ft | 437 kts | 315° |
| 2026-04-23 00:50 | 56.39340 | 11.57582 | 26022 ft | 440 kts | 314° |
| 2026-04-23 00:51 | 56.41358 | 11.53383 | 26414 ft | 444 kts | 314° |
| 2026-04-23 00:51 | 56.43385 | 11.49145 | 26784 ft | 448 kts | 314° |
| 2026-04-23 00:51 | 56.45428 | 11.44885 | 27200 ft | 450 kts | 314° |
| 2026-04-23 00:51 | 56.47498 | 11.40591 | 27626 ft | 453 kts | 314° |
| 2026-04-23 00:52 | 56.49583 | 11.36282 | 28029 ft | 456 kts | 314° |
| 2026-04-23 00:52 | 56.51674 | 11.31967 | 28421 ft | 459 kts | 314° |
| 2026-04-23 00:52 | 56.53796 | 11.27590 | 28813 ft | 462 kts | 314° |
| 2026-04-23 00:52 | 56.55918 | 11.23206 | 29203 ft | 465 kts | 314° |
| 2026-04-23 00:53 | 56.58030 | 11.18838 | 29554 ft | 467 kts | 314° |
| 2026-04-23 00:53 | 56.60177 | 11.14385 | 29929 ft | 470 kts | 314° |
| 2026-04-23 00:53 | 56.62336 | 11.09897 | 30283 ft | 472 kts | 314° |
| 2026-04-23 00:53 | 56.64494 | 11.05404 | 30663 ft | 473 kts | 314° |
| 2026-04-23 00:54 | 56.66659 | 11.00883 | 30971 ft | 475 kts | 314° |
| 2026-04-23 00:54 | 56.68837 | 10.96330 | 31267 ft | 478 kts | 314° |
| 2026-04-23 00:54 | 56.71020 | 10.91758 | 31553 ft | 480 kts | 314° |
| 2026-04-23 00:54 | 56.73214 | 10.87152 | 31835 ft | 482 kts | 314° |
| 2026-04-23 00:55 | 56.75408 | 10.82539 | 32106 ft | 483 kts | 314° |
| 2026-04-23 00:55 | 56.77614 | 10.77889 | 32366 ft | 485 kts | 314° |
| 2026-04-23 00:55 | 56.79829 | 10.73215 | 32623 ft | 487 kts | 314° |
| 2026-04-23 00:55 | 56.82045 | 10.68525 | 32872 ft | 489 kts | 314° |
| 2026-04-23 00:56 | 56.84269 | 10.63813 | 33117 ft | 491 kts | 314° |
| 2026-04-23 00:56 | 56.86500 | 10.59074 | 33337 ft | 492 kts | 314° |
| 2026-04-23 00:56 | 56.88736 | 10.54316 | 33566 ft | 494 kts | 314° |
| 2026-04-23 00:56 | 56.90986 | 10.49518 | 33792 ft | 495 kts | 314° |
| 2026-04-23 00:57 | 56.93221 | 10.44741 | 34156 ft | 494 kts | 314° |
| 2026-04-23 00:57 | 56.95453 | 10.39959 | 34480 ft | 492 kts | 313° |
| 2026-04-23 00:57 | 56.97667 | 10.35205 | 34849 ft | 489 kts | 313° |
| 2026-04-23 00:57 | 56.99870 | 10.30468 | 35130 ft | 488 kts | 313° |
| 2026-04-23 00:58 | 57.02046 | 10.25782 | 35326 ft | 489 kts | 313° |
| 2026-04-23 00:58 | 57.04276 | 10.20970 | 35529 ft | 489 kts | 313° |
| 2026-04-23 00:58 | 57.06477 | 10.16212 | 35752 ft | 488 kts | 313° |
| 2026-04-23 00:58 | 57.08648 | 10.11509 | 35958 ft | 488 kts | 313° |
| 2026-04-23 00:59 | 57.10846 | 10.06738 | 36145 ft | 489 kts | 313° |
| 2026-04-23 00:59 | 57.15263 | 9.97123 | 36320 ft | 493 kts | 313° |
| 2026-04-23 00:59 | 57.17474 | 9.92290 | 36554 ft | 492 kts | 313° |
| 2026-04-23 01:00 | 57.19679 | 9.87464 | 36760 ft | 492 kts | 313° |
| 2026-04-23 01:00 | 57.21883 | 9.82627 | 36964 ft | 492 kts | 313° |
| 2026-04-23 01:00 | 57.24084 | 9.77791 | 37146 ft | 492 kts | 313° |
| 2026-04-23 01:00 | 57.26285 | 9.72942 | 37312 ft | 491 kts | 313° |
| 2026-04-23 01:01 | 57.28453 | 9.68158 | 37501 ft | 491 kts | 313° |
| 2026-04-23 01:01 | 57.30664 | 9.63268 | 37842 ft | 487 kts | 313° |
| 2026-04-23 01:01 | 57.32833 | 9.58458 | 38054 ft | 486 kts | 313° |
| 2026-04-23 01:02 | 57.37161 | 9.48845 | 38053 ft | 492 kts | 312° |
| 2026-04-23 01:02 | 57.39348 | 9.43972 | 38199 ft | 492 kts | 312° |
| 2026-04-23 01:02 | 57.41540 | 9.39075 | 38271 ft | 494 kts | 312° |
| 2026-04-23 01:03 | 57.45940 | 9.29217 | 38270 ft | 496 kts | 312° |
| 2026-04-23 01:03 | 57.50335 | 9.19325 | 38271 ft | 496 kts | 312° |
| 2026-04-23 01:04 | 57.54720 | 9.09415 | 38272 ft | 496 kts | 312° |
| 2026-04-23 01:04 | 57.61300 | 8.94469 | 38271 ft | 498 kts | 311° |
| 2026-04-23 01:05 | 57.65681 | 8.84464 | 38279 ft | 496 kts | 311° |
| 2026-04-23 01:05 | 57.70053 | 8.74512 | 38279 ft | 495 kts | 312° |
| 2026-04-23 01:06 | 57.74503 | 8.64670 | 38278 ft | 495 kts | 312° |
| 2026-04-23 01:06 | 57.78956 | 8.54829 | 38278 ft | 495 kts | 312° |
| 2026-04-23 01:07 | 57.83398 | 8.44925 | 38282 ft | 497 kts | 311° |
| 2026-04-23 01:07 | 57.87816 | 8.35004 | 38284 ft | 499 kts | 311° |
| 2026-04-23 01:08 | 57.92260 | 8.24974 | 38282 ft | 499 kts | 311° |
| 2026-04-23 01:08 | 57.96690 | 8.14936 | 38277 ft | 497 kts | 311° |
| 2026-04-23 01:09 | 58.01093 | 8.04916 | 38277 ft | 496 kts | 311° |
| 2026-04-23 01:09 | 58.05487 | 7.94876 | 38272 ft | 496 kts | 311° |
| 2026-04-23 01:10 | 58.09887 | 7.84779 | 38275 ft | 499 kts | 310° |
| 2026-04-23 01:10 | 58.14293 | 7.74627 | 38283 ft | 500 kts | 310° |
| 2026-04-23 01:11 | 58.18700 | 7.64425 | 38292 ft | 500 kts | 310° |
| 2026-04-23 01:11 | 58.23094 | 7.54209 | 38303 ft | 499 kts | 310° |
| 2026-04-23 01:12 | 58.27449 | 7.44044 | 38328 ft | 499 kts | 310° |
| 2026-04-23 01:12 | 58.31848 | 7.33729 | 38329 ft | 499 kts | 310° |
| 2026-04-23 01:13 | 58.36191 | 7.23501 | 38327 ft | 500 kts | 309° |
| 2026-04-23 01:13 | 58.40553 | 7.13184 | 38340 ft | 500 kts | 309° |
| 2026-04-23 01:14 | 58.44908 | 7.02836 | 38343 ft | 500 kts | 309° |
| 2026-04-23 01:14 | 58.49257 | 6.92460 | 38343 ft | 500 kts | 309° |
| 2026-04-23 01:15 | 58.53593 | 6.82066 | 38353 ft | 501 kts | 309° |
| 2026-04-23 01:15 | 58.57949 | 6.71579 | 38350 ft | 503 kts | 309° |
| 2026-04-23 01:16 | 58.62271 | 6.61131 | 38356 ft | 503 kts | 309° |
| 2026-04-23 01:16 | 58.66610 | 6.50590 | 38362 ft | 503 kts | 308° |
| 2026-04-23 01:17 | 58.70939 | 6.40029 | 38368 ft | 503 kts | 308° |
| 2026-04-23 01:17 | 58.75265 | 6.29427 | 38373 ft | 503 kts | 308° |
| 2026-04-23 01:18 | 58.79589 | 6.18781 | 38379 ft | 505 kts | 308° |
| 2026-04-23 01:18 | 58.83918 | 6.08078 | 38395 ft | 506 kts | 308° |
| 2026-04-23 01:19 | 58.88243 | 5.97332 | 38391 ft | 506 kts | 308° |
| 2026-04-23 01:19 | 58.92527 | 5.86641 | 38396 ft | 504 kts | 307° |
| 2026-04-23 01:20 | 58.96806 | 5.75914 | 38398 ft | 503 kts | 307° |
| 2026-04-23 01:20 | 59.01086 | 5.65135 | 38397 ft | 503 kts | 307° |
| 2026-04-23 01:21 | 59.05351 | 5.54344 | 38387 ft | 503 kts | 307° |
| 2026-04-23 01:21 | 59.09576 | 5.43604 | 38394 ft | 503 kts | 307° |
| 2026-04-23 01:22 | 59.13820 | 5.32768 | 38396 ft | 503 kts | 307° |
| 2026-04-23 01:22 | 59.18054 | 5.21909 | 38397 ft | 503 kts | 307° |
| 2026-04-23 01:23 | 59.22292 | 5.10986 | 38394 ft | 503 kts | 306° |
| 2026-04-23 01:23 | 59.26511 | 5.00064 | 38400 ft | 504 kts | 306° |
| 2026-04-23 01:24 | 59.30725 | 4.89102 | 38405 ft | 504 kts | 306° |
| 2026-04-23 01:24 | 59.34930 | 4.78113 | 38412 ft | 504 kts | 306° |
| 2026-04-23 01:25 | 59.39096 | 4.67176 | 38415 ft | 504 kts | 306° |
| 2026-04-23 01:25 | 59.43313 | 4.56055 | 38429 ft | 504 kts | 306° |
| 2026-04-23 01:26 | 59.47460 | 4.45063 | 38431 ft | 504 kts | 305° |
| 2026-04-23 01:26 | 59.51632 | 4.33953 | 38441 ft | 505 kts | 305° |
| 2026-04-23 01:27 | 59.55804 | 4.22791 | 38440 ft | 505 kts | 305° |
| 2026-04-23 01:27 | 59.59959 | 4.11621 | 38451 ft | 505 kts | 304° |
| 2026-04-23 01:28 | 59.64115 | 4.00395 | 38454 ft | 506 kts | 304° |
| 2026-04-23 01:28 | 59.68263 | 3.89140 | 38466 ft | 506 kts | 304° |
| 2026-04-23 01:29 | 59.72398 | 3.77865 | 38465 ft | 504 kts | 304° |
| 2026-04-23 01:29 | 59.76505 | 3.66610 | 38473 ft | 504 kts | 304° |
| 2026-04-23 01:30 | 59.80576 | 3.55402 | 38480 ft | 504 kts | 304° |
| 2026-04-23 01:30 | 59.84659 | 3.44106 | 38471 ft | 503 kts | 304° |
| 2026-04-23 01:31 | 59.88733 | 3.32779 | 38484 ft | 502 kts | 304° |
| 2026-04-23 01:31 | 59.92791 | 3.21445 | 38484 ft | 503 kts | 303° |
| 2026-04-23 01:32 | 59.96166 | 3.11971 | 38489 ft | 504 kts | 303° |
| 2026-04-23 01:32 | 60.00218 | 3.00553 | 38489 ft | 504 kts | 303° |
| 2026-04-23 01:33 | 60.04271 | 2.89073 | 38495 ft | 504 kts | 303° |
| 2026-04-23 01:33 | 60.08304 | 2.77593 | 38495 ft | 504 kts | 303° |
| 2026-04-23 01:34 | 60.12328 | 2.66086 | 38495 ft | 504 kts | 303° |
| 2026-04-23 01:34 | 60.16358 | 2.54500 | 38491 ft | 507 kts | 302° |
| 2026-04-23 01:35 | 60.20390 | 2.42851 | 38492 ft | 507 kts | 302° |
| 2026-04-23 01:35 | 60.24411 | 2.31181 | 38500 ft | 507 kts | 302° |
| 2026-04-23 01:36 | 60.28393 | 2.19562 | 38500 ft | 507 kts | 302° |
| 2026-04-23 01:36 | 60.32394 | 2.07830 | 38511 ft | 507 kts | 302° |
| 2026-04-23 01:37 | 60.36382 | 1.96075 | 38518 ft | 508 kts | 302° |
| 2026-04-23 01:37 | 60.40389 | 1.84204 | 38516 ft | 513 kts | 302° |
| 2026-04-23 01:38 | 60.44407 | 1.72242 | 38516 ft | 513 kts | 301° |
| 2026-04-23 01:38 | 60.48403 | 1.60285 | 38519 ft | 512 kts | 301° |
| 2026-04-23 01:39 | 60.52359 | 1.48387 | 38519 ft | 511 kts | 301° |
| 2026-04-23 01:39 | 60.56326 | 1.36392 | 38519 ft | 511 kts | 301° |
| 2026-04-23 01:40 | 60.60287 | 1.24352 | 38525 ft | 514 kts | 301° |
| 2026-04-23 01:40 | 60.64256 | 1.12222 | 38518 ft | 516 kts | 301° |
| 2026-04-23 01:41 | 60.68234 | 1.00009 | 38525 ft | 516 kts | 301° |
| 2026-04-23 01:41 | 60.72172 | 0.87852 | 38525 ft | 516 kts | 301° |
| 2026-04-23 01:42 | 60.76118 | 0.75606 | 38518 ft | 516 kts | 301° |
| 2026-04-23 01:42 | 60.80049 | 0.63343 | 38534 ft | 515 kts | 300° |
| 2026-04-23 01:43 | 60.83966 | 0.51056 | 38537 ft | 514 kts | 300° |
| 2026-04-23 01:43 | 60.87862 | 0.38766 | 38513 ft | 514 kts | 299° |
| 2026-04-23 01:44 | 60.91751 | 0.26438 | 38519 ft | 514 kts | 299° |
| 2026-04-23 01:44 | 60.95629 | 0.14078 | 38521 ft | 514 kts | 299° |
| 2026-04-23 01:45 | 60.99333 | 0.01541 | 38538 ft | 510 kts | 291° |
| 2026-04-23 01:45 | 61.01725 | -0.12041 | 38529 ft | 501 kts | 283° |
| 2026-04-23 01:46 | 61.03681 | -0.25809 | 38530 ft | 499 kts | 281° |
| 2026-04-23 01:46 | 61.05541 | -0.39524 | 38530 ft | 500 kts | 281° |
| 2026-04-23 01:47 | 61.07413 | -0.53356 | 38533 ft | 500 kts | 281° |
| 2026-04-23 01:47 | 61.09286 | -0.67195 | 38533 ft | 500 kts | 281° |
| 2026-04-23 01:48 | 61.11151 | -0.81052 | 38533 ft | 500 kts | 281° |
| 2026-04-23 01:48 | 61.13002 | -0.94929 | 38535 ft | 499 kts | 281° |
| 2026-04-23 01:49 | 61.14826 | -1.08722 | 38536 ft | 499 kts | 281° |
| 2026-04-23 01:49 | 61.16643 | -1.22598 | 38535 ft | 499 kts | 281° |
| 2026-04-23 01:50 | 61.18453 | -1.36537 | 38538 ft | 499 kts | 281° |
| 2026-04-23 01:50 | 61.20242 | -1.50448 | 38538 ft | 499 kts | 281° |
| 2026-04-23 01:51 | 61.22017 | -1.64365 | 38537 ft | 500 kts | 280° |
| 2026-04-23 01:51 | 61.23783 | -1.78347 | 38540 ft | 500 kts | 280° |
| 2026-04-23 01:52 | 61.25523 | -1.92255 | 38535 ft | 500 kts | 280° |
| 2026-04-23 01:52 | 61.27259 | -2.06255 | 38537 ft | 500 kts | 280° |
| 2026-04-23 01:53 | 61.28980 | -2.20271 | 38535 ft | 501 kts | 280° |
| 2026-04-23 01:53 | 61.30688 | -2.34331 | 38538 ft | 502 kts | 280° |
| 2026-04-23 01:54 | 61.32387 | -2.48429 | 38534 ft | 502 kts | 280° |
| 2026-04-23 01:54 | 61.34070 | -2.62541 | 38535 ft | 503 kts | 280° |
| 2026-04-23 01:55 | 61.35736 | -2.76637 | 38538 ft | 503 kts | 280° |
| 2026-04-23 01:55 | 61.37393 | -2.90806 | 38542 ft | 503 kts | 280° |
| 2026-04-23 01:56 | 61.39050 | -3.05109 | 38541 ft | 504 kts | 280° |
| 2026-04-23 01:56 | 61.40670 | -3.19234 | 38542 ft | 504 kts | 280° |
| 2026-04-23 01:57 | 61.42288 | -3.33487 | 38539 ft | 504 kts | 279° |
| 2026-04-23 01:57 | 61.43887 | -3.47727 | 38537 ft | 504 kts | 279° |
| 2026-04-23 01:58 | 61.45474 | -3.62000 | 38536 ft | 503 kts | 280° |
| 2026-04-23 01:58 | 61.47041 | -3.76249 | 38532 ft | 502 kts | 279° |
| 2026-04-23 01:59 | 61.48594 | -3.90514 | 38536 ft | 502 kts | 279° |
| 2026-04-23 01:59 | 61.50127 | -4.04746 | 38541 ft | 502 kts | 279° |
| 2026-04-23 02:00 | 61.51650 | -4.19046 | 38537 ft | 502 kts | 279° |
| 2026-04-23 02:00 | 61.53156 | -4.33335 | 38545 ft | 502 kts | 279° |
| 2026-04-23 02:01 | 61.54637 | -4.47540 | 38539 ft | 502 kts | 279° |
| 2026-04-23 02:01 | 61.56115 | -4.61870 | 38537 ft | 502 kts | 279° |
| 2026-04-23 02:02 | 61.57575 | -4.76188 | 38537 ft | 501 kts | 279° |
| 2026-04-23 02:02 | 61.59018 | -4.90497 | 38538 ft | 501 kts | 279° |
| 2026-04-23 02:03 | 61.60449 | -5.04847 | 38536 ft | 501 kts | 279° |
| 2026-04-23 02:03 | 61.61862 | -5.19190 | 38535 ft | 500 kts | 279° |
| 2026-04-23 02:04 | 61.63249 | -5.33422 | 38535 ft | 500 kts | 279° |
| 2026-04-23 02:04 | 61.64632 | -5.47785 | 38535 ft | 500 kts | 279° |
| 2026-04-23 02:05 | 61.66000 | -5.62160 | 38538 ft | 500 kts | 278° |
| 2026-04-23 02:05 | 61.67351 | -5.76535 | 38539 ft | 500 kts | 278° |
| 2026-04-23 02:06 | 61.68686 | -5.90895 | 38533 ft | 500 kts | 278° |
| 2026-04-23 02:06 | 61.70007 | -6.05298 | 38533 ft | 500 kts | 278° |
| 2026-04-23 02:07 | 61.71314 | -6.19708 | 38536 ft | 500 kts | 278° |
| 2026-04-23 02:07 | 61.72596 | -6.34031 | 38534 ft | 500 kts | 278° |
| 2026-04-23 02:08 | 61.73868 | -6.48422 | 38535 ft | 500 kts | 278° |
| 2026-04-23 02:08 | 61.75131 | -6.62887 | 38529 ft | 500 kts | 278° |
| 2026-04-23 02:09 | 61.76373 | -6.77311 | 38524 ft | 501 kts | 278° |
| 2026-04-23 02:09 | 61.77609 | -6.91848 | 38527 ft | 502 kts | 278° |
| 2026-04-23 02:10 | 61.78830 | -7.06387 | 38530 ft | 502 kts | 277° |
| 2026-04-23 02:10 | 61.80036 | -7.20951 | 38535 ft | 502 kts | 277° |
| 2026-04-23 02:11 | 61.81227 | -7.35535 | 38527 ft | 503 kts | 277° |
| 2026-04-23 02:11 | 61.82400 | -7.50093 | 38527 ft | 503 kts | 277° |
| 2026-04-23 02:12 | 61.83551 | -7.64583 | 38526 ft | 502 kts | 277° |
| 2026-04-23 02:12 | 61.84694 | -7.79186 | 38534 ft | 502 kts | 277° |
| 2026-04-23 02:13 | 61.85822 | -7.93792 | 38533 ft | 502 kts | 277° |
| 2026-04-23 02:13 | 61.86934 | -8.08405 | 38534 ft | 502 kts | 277° |
| 2026-04-23 02:14 | 61.88031 | -8.23043 | 38533 ft | 502 kts | 277° |
| 2026-04-23 02:14 | 61.89112 | -8.37686 | 38530 ft | 502 kts | 276° |
| 2026-04-23 02:15 | 61.90702 | -8.59628 | 38528 ft | 502 kts | 276° |
| 2026-04-23 02:16 | 61.91739 | -8.74213 | 38525 ft | 503 kts | 276° |
| 2026-04-23 02:16 | 61.92766 | -8.88898 | 38530 ft | 503 kts | 276° |
| 2026-04-23 02:17 | 61.93778 | -9.03594 | 38531 ft | 503 kts | 276° |
| 2026-04-23 02:17 | 61.94776 | -9.18329 | 38530 ft | 504 kts | 276° |
| 2026-04-23 02:18 | 61.95762 | -9.33112 | 38533 ft | 504 kts | 276° |
| 2026-04-23 02:18 | 61.96729 | -9.47883 | 38528 ft | 505 kts | 276° |
| 2026-04-23 02:19 | 61.97523 | -9.60191 | 38524 ft | 505 kts | 276° |
| 2026-04-23 02:19 | 61.98464 | -9.74999 | 38532 ft | 505 kts | 275° |
| 2026-04-23 02:20 | 61.99390 | -9.89848 | 38525 ft | 505 kts | 275° |
| 2026-04-23 02:20 | 61.99641 | -10.04592 | 38541 ft | 500 kts | 262° |
| 2026-04-23 02:21 | 61.98865 | -10.19408 | 38526 ft | 500 kts | 260° |
| 2026-04-23 02:21 | 61.97925 | -10.34049 | 38523 ft | 500 kts | 259° |
| 2026-04-23 02:22 | 61.96960 | -10.48645 | 38523 ft | 500 kts | 259° |
| 2026-04-23 02:22 | 61.95995 | -10.63272 | 38522 ft | 500 kts | 259° |
| 2026-04-23 02:23 | 61.95022 | -10.77917 | 38522 ft | 500 kts | 259° |
| 2026-04-23 02:23 | 61.94035 | -10.92571 | 38522 ft | 500 kts | 259° |
| 2026-04-23 02:24 | 61.93035 | -11.07168 | 38523 ft | 500 kts | 259° |
| 2026-04-23 02:24 | 61.92018 | -11.21763 | 38522 ft | 500 kts | 259° |
| 2026-04-23 02:25 | 61.90984 | -11.36379 | 38519 ft | 500 kts | 259° |
| 2026-04-23 02:25 | 61.89936 | -11.50950 | 38520 ft | 500 kts | 259° |
| 2026-04-23 02:26 | 61.88872 | -11.65533 | 38521 ft | 500 kts | 259° |
| 2026-04-23 02:26 | 61.87792 | -11.80111 | 38521 ft | 500 kts | 259° |
| 2026-04-23 02:27 | 61.86695 | -11.94685 | 38519 ft | 500 kts | 259° |
| 2026-04-23 02:27 | 61.85591 | -12.09157 | 38514 ft | 500 kts | 258° |
| 2026-04-23 02:28 | 61.84467 | -12.23673 | 38531 ft | 500 kts | 258° |
| 2026-04-23 02:28 | 61.83324 | -12.38221 | 38508 ft | 500 kts | 258° |
| 2026-04-23 02:29 | 61.82168 | -12.52736 | 38515 ft | 500 kts | 258° |
| 2026-04-23 02:29 | 61.80998 | -12.67230 | 38516 ft | 500 kts | 258° |
| 2026-04-23 02:30 | 61.79810 | -12.81733 | 38519 ft | 500 kts | 258° |
| 2026-04-23 02:30 | 61.78609 | -12.96209 | 38523 ft | 500 kts | 258° |
| 2026-04-23 02:31 | 61.77390 | -13.10692 | 38509 ft | 501 kts | 258° |
| 2026-04-23 02:31 | 61.76156 | -13.25167 | 38505 ft | 501 kts | 258° |
| 2026-04-23 02:32 | 61.74907 | -13.39636 | 38501 ft | 501 kts | 258° |
| 2026-04-23 02:32 | 61.73642 | -13.54091 | 38505 ft | 501 kts | 257° |
| 2026-04-23 02:33 | 61.72363 | -13.68530 | 38505 ft | 501 kts | 257° |
| 2026-04-23 02:33 | 61.71068 | -13.82954 | 38501 ft | 501 kts | 257° |
| 2026-04-23 02:34 | 61.69763 | -13.97318 | 38500 ft | 501 kts | 257° |
| 2026-04-23 02:34 | 61.68442 | -14.11682 | 38497 ft | 501 kts | 257° |
| 2026-04-23 02:35 | 61.67099 | -14.26102 | 38498 ft | 501 kts | 257° |
| 2026-04-23 02:35 | 61.65743 | -14.40489 | 38493 ft | 501 kts | 257° |
| 2026-04-23 02:36 | 61.64369 | -14.54896 | 38491 ft | 502 kts | 257° |
| 2026-04-23 02:36 | 61.62980 | -14.69287 | 38492 ft | 502 kts | 257° |
| 2026-04-23 02:37 | 61.61578 | -14.83648 | 38495 ft | 502 kts | 257° |
| 2026-04-23 02:37 | 61.60159 | -14.98005 | 38495 ft | 502 kts | 256° |
| 2026-04-23 02:38 | 61.58727 | -15.12344 | 38496 ft | 502 kts | 256° |
| 2026-04-23 02:38 | 61.57286 | -15.26594 | 38492 ft | 502 kts | 256° |
| 2026-04-23 02:39 | 61.55825 | -15.40892 | 38491 ft | 502 kts | 256° |
| 2026-04-23 02:39 | 61.54346 | -15.55208 | 38489 ft | 501 kts | 256° |
| 2026-04-23 02:40 | 61.52855 | -15.69475 | 38503 ft | 501 kts | 256° |
| 2026-04-23 02:40 | 61.51347 | -15.83748 | 38489 ft | 502 kts | 256° |
| 2026-04-23 02:41 | 61.49822 | -15.98029 | 38488 ft | 502 kts | 256° |
| 2026-04-23 02:41 | 61.48282 | -16.12294 | 38487 ft | 502 kts | 256° |
| 2026-04-23 02:42 | 61.46729 | -16.26537 | 38487 ft | 502 kts | 256° |
| 2026-04-23 02:42 | 61.45160 | -16.40769 | 38490 ft | 502 kts | 256° |
| 2026-04-23 02:43 | 61.43575 | -16.54996 | 38486 ft | 502 kts | 255° |
| 2026-04-23 02:43 | 61.41975 | -16.69209 | 38485 ft | 503 kts | 255° |
| 2026-04-23 02:44 | 61.40360 | -16.83414 | 38482 ft | 503 kts | 255° |
| 2026-04-23 02:44 | 61.38730 | -16.97603 | 38479 ft | 502 kts | 255° |
| 2026-04-23 02:45 | 61.37085 | -17.11778 | 38481 ft | 503 kts | 255° |
| 2026-04-23 02:45 | 61.35433 | -17.25871 | 38480 ft | 503 kts | 255° |
| 2026-04-23 02:46 | 61.33757 | -17.40033 | 38482 ft | 504 kts | 255° |
| 2026-04-23 02:46 | 61.32065 | -17.54192 | 38481 ft | 503 kts | 255° |
| 2026-04-23 02:47 | 61.30357 | -17.68345 | 38478 ft | 503 kts | 255° |
| 2026-04-23 02:47 | 61.28637 | -17.82456 | 38479 ft | 504 kts | 255° |
| 2026-04-23 02:48 | 61.26896 | -17.96606 | 38477 ft | 505 kts | 255° |
| 2026-04-23 02:48 | 61.25141 | -18.10739 | 38478 ft | 505 kts | 254° |
| 2026-04-23 02:49 | 61.23372 | -18.24847 | 38480 ft | 505 kts | 254° |
| 2026-04-23 02:49 | 61.21588 | -18.38944 | 38479 ft | 505 kts | 254° |
| 2026-04-23 02:50 | 61.19798 | -18.52948 | 38483 ft | 505 kts | 254° |
| 2026-04-23 02:50 | 61.17984 | -18.67023 | 38475 ft | 505 kts | 254° |
| 2026-04-23 02:51 | 61.16154 | -18.81085 | 38476 ft | 505 kts | 254° |
| 2026-04-23 02:51 | 61.14309 | -18.95135 | 38476 ft | 505 kts | 254° |
| 2026-04-23 02:52 | 61.12449 | -19.09172 | 38480 ft | 505 kts | 254° |
| 2026-04-23 02:52 | 61.10578 | -19.23168 | 38476 ft | 505 kts | 254° |
| 2026-04-23 02:53 | 61.08688 | -19.37179 | 38475 ft | 505 kts | 253° |
| 2026-04-23 02:53 | 61.06787 | -19.51154 | 38473 ft | 505 kts | 253° |
| 2026-04-23 02:54 | 61.04871 | -19.65107 | 38474 ft | 505 kts | 253° |
| 2026-04-23 02:54 | 61.02939 | -19.79060 | 38473 ft | 505 kts | 253° |
| 2026-04-23 02:55 | 61.00997 | -19.92966 | 38477 ft | 505 kts | 253° |
| 2026-04-23 02:55 | 60.99105 | -20.06823 | 38474 ft | 505 kts | 256° |
| 2026-04-23 02:56 | 60.97587 | -20.21044 | 38471 ft | 505 kts | 258° |
| 2026-04-23 02:56 | 60.96158 | -20.35124 | 38468 ft | 505 kts | 257° |
| 2026-04-23 02:57 | 60.94647 | -20.49245 | 38467 ft | 505 kts | 257° |
| 2026-04-23 02:57 | 60.93081 | -20.63347 | 38468 ft | 505 kts | 256° |
| 2026-04-23 02:58 | 60.91491 | -20.77419 | 38467 ft | 505 kts | 256° |
| 2026-04-23 02:58 | 60.89888 | -20.91480 | 38471 ft | 506 kts | 256° |
| 2026-04-23 02:59 | 60.88269 | -21.05559 | 38471 ft | 507 kts | 256° |
| 2026-04-23 02:59 | 60.86634 | -21.19641 | 38467 ft | 507 kts | 256° |
| 2026-04-23 03:00 | 60.84982 | -21.33726 | 38469 ft | 507 kts | 256° |
| 2026-04-23 03:00 | 60.83315 | -21.47795 | 38470 ft | 507 kts | 256° |
| 2026-04-23 03:01 | 60.81920 | -21.59472 | 38472 ft | 508 kts | 256° |
| 2026-04-23 03:01 | 60.79946 | -21.75824 | 38468 ft | 507 kts | 256° |
| 2026-04-23 03:02 | 60.78239 | -21.89820 | 38469 ft | 507 kts | 256° |
| 2026-04-23 03:02 | 60.76795 | -22.01555 | 38469 ft | 507 kts | 255° |
| 2026-04-23 03:03 | 60.75069 | -22.15464 | 38469 ft | 507 kts | 255° |
| 2026-04-23 03:03 | 60.73320 | -22.29422 | 38467 ft | 507 kts | 255° |
| 2026-04-23 03:04 | 60.71555 | -22.43377 | 38467 ft | 507 kts | 255° |
| 2026-04-23 03:04 | 60.69770 | -22.57359 | 38465 ft | 508 kts | 255° |
| 2026-04-23 03:05 | 60.67974 | -22.71304 | 38468 ft | 508 kts | 255° |
| 2026-04-23 03:05 | 60.66173 | -22.85155 | 38467 ft | 508 kts | 255° |
| 2026-04-23 03:06 | 60.64347 | -22.99074 | 38467 ft | 508 kts | 255° |
| 2026-04-23 03:06 | 60.62507 | -23.12974 | 38468 ft | 508 kts | 255° |
| 2026-04-23 03:07 | 60.60650 | -23.26879 | 38463 ft | 508 kts | 255° |
| 2026-04-23 03:07 | 60.58782 | -23.40739 | 38465 ft | 508 kts | 255° |
| 2026-04-23 03:08 | 60.56898 | -23.54594 | 38465 ft | 508 kts | 254° |
| 2026-04-23 03:08 | 60.55001 | -23.68432 | 38464 ft | 508 kts | 254° |
| 2026-04-23 03:09 | 60.53097 | -23.82192 | 38469 ft | 508 kts | 254° |
| 2026-04-23 03:09 | 60.51169 | -23.96007 | 38468 ft | 508 kts | 254° |
| 2026-04-23 03:10 | 60.49226 | -24.09813 | 38463 ft | 508 kts | 254° |
| 2026-04-23 03:10 | 60.47269 | -24.23603 | 38462 ft | 508 kts | 254° |
| 2026-04-23 03:11 | 60.45299 | -24.37367 | 38464 ft | 508 kts | 254° |
| 2026-04-23 03:11 | 60.43318 | -24.51090 | 38462 ft | 508 kts | 253° |
| 2026-04-23 03:12 | 60.41315 | -24.64850 | 38464 ft | 508 kts | 253° |
| 2026-04-23 03:12 | 60.39315 | -24.78480 | 38462 ft | 508 kts | 253° |
| 2026-04-23 03:13 | 60.37288 | -24.92181 | 38462 ft | 508 kts | 253° |
| 2026-04-23 03:13 | 60.35249 | -25.05846 | 38462 ft | 508 kts | 253° |
| 2026-04-23 03:14 | 60.33192 | -25.19526 | 38462 ft | 508 kts | 253° |
| 2026-04-23 03:14 | 60.31122 | -25.33180 | 38460 ft | 509 kts | 253° |
| 2026-04-23 03:15 | 60.29041 | -25.46798 | 38461 ft | 509 kts | 253° |
| 2026-04-23 03:15 | 60.26942 | -25.60421 | 38464 ft | 509 kts | 253° |
| 2026-04-23 03:16 | 60.24830 | -25.74027 | 38462 ft | 510 kts | 253° |
| 2026-04-23 03:16 | 60.21642 | -25.94359 | 38463 ft | 510 kts | 252° |
| 2026-04-23 03:17 | 60.19489 | -26.07957 | 38462 ft | 510 kts | 252° |
| 2026-04-23 03:17 | 60.17325 | -26.21521 | 38462 ft | 510 kts | 252° |
| 2026-04-23 03:18 | 60.15146 | -26.35074 | 38463 ft | 510 kts | 252° |
| 2026-04-23 03:18 | 60.12947 | -26.48643 | 38460 ft | 510 kts | 252° |
| 2026-04-23 03:19 | 60.10737 | -26.62183 | 38460 ft | 510 kts | 252° |
| 2026-04-23 03:19 | 60.08515 | -26.75686 | 38454 ft | 510 kts | 252° |
| 2026-04-23 03:20 | 60.06279 | -26.89177 | 38455 ft | 511 kts | 252° |
| 2026-04-23 03:20 | 60.04025 | -27.02672 | 38457 ft | 512 kts | 251° |
| 2026-04-23 03:21 | 60.01757 | -27.16154 | 38441 ft | 512 kts | 251° |
| 2026-04-23 03:21 | 59.99474 | -27.29627 | 38454 ft | 512 kts | 251° |
| 2026-04-23 03:22 | 59.97176 | -27.43086 | 38451 ft | 512 kts | 251° |
| 2026-04-23 03:22 | 59.94865 | -27.56519 | 38451 ft | 512 kts | 251° |
| 2026-04-23 03:23 | 59.92533 | -27.69976 | 38451 ft | 513 kts | 251° |
| 2026-04-23 03:23 | 59.90191 | -27.83398 | 38451 ft | 513 kts | 251° |
| 2026-04-23 03:24 | 59.87834 | -27.96805 | 38446 ft | 513 kts | 251° |
| 2026-04-23 03:24 | 59.85476 | -28.10124 | 38446 ft | 513 kts | 251° |
| 2026-04-23 03:25 | 59.83096 | -28.23475 | 38449 ft | 513 kts | 251° |
| 2026-04-23 03:25 | 59.80700 | -28.36816 | 38449 ft | 513 kts | 250° |
| 2026-04-23 03:26 | 59.78287 | -28.50160 | 38454 ft | 513 kts | 250° |
| 2026-04-23 03:26 | 59.75862 | -28.63472 | 38452 ft | 513 kts | 250° |
| 2026-04-23 03:27 | 59.73427 | -28.76751 | 38450 ft | 513 kts | 250° |
| 2026-04-23 03:27 | 59.70972 | -28.90044 | 38449 ft | 513 kts | 250° |
| 2026-04-23 03:28 | 59.68504 | -29.03313 | 38446 ft | 513 kts | 250° |
| 2026-04-23 03:28 | 59.66020 | -29.16578 | 38446 ft | 513 kts | 250° |
| 2026-04-23 03:29 | 59.63525 | -29.29816 | 38446 ft | 513 kts | 250° |
| 2026-04-23 03:29 | 59.61015 | -29.43036 | 38441 ft | 514 kts | 250° |
| 2026-04-23 03:30 | 59.58490 | -29.56252 | 38443 ft | 514 kts | 250° |
| 2026-04-23 03:30 | 59.55954 | -29.69429 | 38441 ft | 514 kts | 249° |
| 2026-04-23 03:31 | 59.53398 | -29.82626 | 38443 ft | 514 kts | 249° |
| 2026-04-23 03:31 | 59.50855 | -29.95690 | 38439 ft | 514 kts | 250° |
| 2026-04-23 03:32 | 59.49007 | -30.09254 | 38440 ft | 513 kts | 258° |
| 2026-04-23 03:32 | 59.47501 | -30.22998 | 38435 ft | 514 kts | 259° |
| 2026-04-23 03:33 | 59.46032 | -30.36763 | 38443 ft | 514 kts | 259° |
| 2026-04-23 03:33 | 59.44540 | -30.50504 | 38441 ft | 514 kts | 258° |
| 2026-04-23 03:34 | 59.43022 | -30.64226 | 38441 ft | 514 kts | 258° |
| 2026-04-23 03:34 | 59.41494 | -30.77856 | 38438 ft | 514 kts | 258° |
| 2026-04-23 03:35 | 59.39941 | -30.91568 | 38435 ft | 514 kts | 258° |
| 2026-04-23 03:35 | 59.38374 | -31.05268 | 38435 ft | 514 kts | 258° |
| 2026-04-23 03:36 | 59.36793 | -31.18959 | 38437 ft | 514 kts | 258° |
| 2026-04-23 03:36 | 59.35193 | -31.32672 | 38438 ft | 516 kts | 258° |
| 2026-04-23 03:37 | 59.33581 | -31.46361 | 38438 ft | 516 kts | 258° |
| 2026-04-23 03:37 | 59.31956 | -31.60013 | 38438 ft | 517 kts | 258° |
| 2026-04-23 03:38 | 59.30301 | -31.73788 | 38432 ft | 517 kts | 258° |
| 2026-04-23 03:38 | 59.28652 | -31.87380 | 38433 ft | 517 kts | 258° |
| 2026-04-23 03:39 | 59.26976 | -32.01070 | 38433 ft | 517 kts | 258° |
| 2026-04-23 03:39 | 59.25287 | -32.14724 | 38439 ft | 517 kts | 258° |
| 2026-04-23 03:40 | 59.23580 | -32.28402 | 38435 ft | 517 kts | 257° |
| 2026-04-23 03:40 | 59.21861 | -32.42048 | 38436 ft | 517 kts | 257° |
| 2026-04-23 03:41 | 59.20135 | -32.55615 | 38432 ft | 518 kts | 257° |
| 2026-04-23 03:41 | 59.18385 | -32.69256 | 38433 ft | 518 kts | 257° |
| 2026-04-23 03:42 | 59.16621 | -32.82879 | 38430 ft | 518 kts | 257° |
| 2026-04-23 03:42 | 59.14841 | -32.96493 | 38439 ft | 518 kts | 257° |
| 2026-04-23 03:43 | 59.13047 | -33.10094 | 38439 ft | 519 kts | 257° |
| 2026-04-23 03:43 | 59.11237 | -33.23696 | 38439 ft | 519 kts | 257° |
| 2026-04-23 03:44 | 59.09412 | -33.37296 | 38413 ft | 519 kts | 257° |
| 2026-04-23 03:44 | 59.07568 | -33.50911 | 38431 ft | 521 kts | 257° |
| 2026-04-23 03:45 | 59.06022 | -33.62233 | 38430 ft | 521 kts | 257° |
| 2026-04-23 03:45 | 59.04150 | -33.75836 | 38432 ft | 521 kts | 257° |
| 2026-04-23 03:46 | 59.02261 | -33.89437 | 38433 ft | 521 kts | 257° |
| 2026-04-23 03:46 | 59.00360 | -34.03013 | 38433 ft | 521 kts | 257° |
| 2026-04-23 03:47 | 58.98444 | -34.16582 | 38433 ft | 521 kts | 256° |
| 2026-04-23 03:47 | 58.96515 | -34.30121 | 38430 ft | 521 kts | 256° |
| 2026-04-23 03:48 | 58.94570 | -34.43664 | 38427 ft | 522 kts | 256° |
| 2026-04-23 03:48 | 58.92609 | -34.57200 | 38428 ft | 522 kts | 256° |
| 2026-04-23 03:49 | 58.90636 | -34.70710 | 38433 ft | 522 kts | 256° |
| 2026-04-23 03:49 | 58.88662 | -34.84111 | 38433 ft | 522 kts | 256° |
| 2026-04-23 03:50 | 58.86656 | -34.97623 | 38430 ft | 522 kts | 256° |
| 2026-04-23 03:50 | 58.84643 | -35.11072 | 38427 ft | 522 kts | 256° |
| 2026-04-23 03:51 | 58.82611 | -35.24541 | 38427 ft | 522 kts | 256° |
| 2026-04-23 03:51 | 58.80567 | -35.37975 | 38427 ft | 522 kts | 256° |
| 2026-04-23 03:52 | 58.78507 | -35.51405 | 38413 ft | 522 kts | 256° |
| 2026-04-23 03:52 | 58.76430 | -35.64846 | 38420 ft | 523 kts | 256° |
| 2026-04-23 03:53 | 58.74350 | -35.78197 | 38427 ft | 523 kts | 256° |
| 2026-04-23 03:53 | 58.72247 | -35.91587 | 38428 ft | 523 kts | 256° |
| 2026-04-23 03:54 | 58.70129 | -36.04975 | 38420 ft | 523 kts | 255° |
| 2026-04-23 03:54 | 58.67992 | -36.18370 | 38425 ft | 523 kts | 255° |
| 2026-04-23 03:55 | 58.65846 | -36.31726 | 38422 ft | 523 kts | 255° |
| 2026-04-23 03:55 | 58.63682 | -36.45089 | 38430 ft | 524 kts | 255° |
| 2026-04-23 03:56 | 58.61506 | -36.58426 | 38432 ft | 524 kts | 255° |
| 2026-04-23 03:56 | 58.59317 | -36.71740 | 38431 ft | 524 kts | 255° |
| 2026-04-23 03:57 | 58.57107 | -36.85081 | 38416 ft | 524 kts | 255° |
| 2026-04-23 03:57 | 58.54887 | -36.98382 | 38420 ft | 524 kts | 255° |
| 2026-04-23 03:58 | 58.52653 | -37.11664 | 38426 ft | 524 kts | 255° |
| 2026-04-23 03:58 | 58.50404 | -37.24945 | 38420 ft | 525 kts | 255° |
| 2026-04-23 03:59 | 58.48142 | -37.38201 | 38413 ft | 525 kts | 255° |
| 2026-04-23 03:59 | 58.45878 | -37.51371 | 38395 ft | 525 kts | 255° |
| 2026-04-23 04:00 | 58.43586 | -37.64605 | 38413 ft | 526 kts | 255° |
| 2026-04-23 04:00 | 58.41273 | -37.77873 | 38417 ft | 527 kts | 255° |
| 2026-04-23 04:01 | 58.38946 | -37.91119 | 38413 ft | 527 kts | 255° |
| 2026-04-23 04:01 | 58.36606 | -38.04343 | 38415 ft | 527 kts | 255° |
| 2026-04-23 04:02 | 58.34248 | -38.17576 | 38413 ft | 527 kts | 255° |
| 2026-04-23 04:02 | 58.31876 | -38.30791 | 38411 ft | 527 kts | 255° |
| 2026-04-23 04:03 | 58.29505 | -38.43913 | 38405 ft | 527 kts | 255° |
| 2026-04-23 04:03 | 58.27104 | -38.57101 | 38406 ft | 528 kts | 255° |
| 2026-04-23 04:04 | 58.24692 | -38.70263 | 38393 ft | 528 kts | 255° |
| 2026-04-23 04:04 | 58.22264 | -38.83418 | 38402 ft | 528 kts | 254° |
| 2026-04-23 04:05 | 58.19825 | -38.96542 | 38400 ft | 528 kts | 254° |
| 2026-04-23 04:05 | 58.17369 | -39.09667 | 38400 ft | 528 kts | 254° |
| 2026-04-23 04:06 | 58.14903 | -39.22756 | 38397 ft | 528 kts | 254° |
| 2026-04-23 04:06 | 58.12421 | -39.35839 | 38395 ft | 528 kts | 254° |
| 2026-04-23 04:07 | 58.09929 | -39.48887 | 38390 ft | 528 kts | 253° |
| 2026-04-23 04:07 | 58.07418 | -39.61951 | 38372 ft | 528 kts | 253° |
| 2026-04-23 04:08 | 58.04897 | -39.74971 | 38394 ft | 526 kts | 253° |
| 2026-04-23 04:08 | 58.02371 | -39.87933 | 38372 ft | 526 kts | 253° |
| 2026-04-23 04:09 | 57.99831 | -40.00884 | 38390 ft | 525 kts | 253° |
| 2026-04-23 04:09 | 57.97658 | -40.13863 | 38390 ft | 522 kts | 258° |
| 2026-04-23 04:10 | 57.95769 | -40.27090 | 38393 ft | 522 kts | 259° |
| 2026-04-23 04:10 | 57.93830 | -40.40285 | 38394 ft | 523 kts | 258° |
| 2026-04-23 04:11 | 57.91807 | -40.53448 | 38387 ft | 523 kts | 257° |
| 2026-04-23 04:11 | 57.89747 | -40.66578 | 38387 ft | 523 kts | 257° |
| 2026-04-23 04:12 | 57.87688 | -40.79590 | 38385 ft | 523 kts | 257° |
| 2026-04-23 04:12 | 57.85602 | -40.92691 | 38381 ft | 523 kts | 257° |
| 2026-04-23 04:13 | 57.83503 | -41.05789 | 38388 ft | 523 kts | 257° |
| 2026-04-23 04:13 | 57.81392 | -41.18858 | 38382 ft | 522 kts | 257° |
| 2026-04-23 04:14 | 57.79274 | -41.31876 | 38382 ft | 522 kts | 256° |
| 2026-04-23 04:14 | 57.77140 | -41.44898 | 38377 ft | 522 kts | 256° |
| 2026-04-23 04:15 | 57.75008 | -41.57809 | 38377 ft | 522 kts | 256° |
| 2026-04-23 04:16 | 57.71763 | -41.77278 | 38373 ft | 521 kts | 256° |
| 2026-04-23 04:16 | 57.69589 | -41.90203 | 38368 ft | 520 kts | 256° |
| 2026-04-23 04:17 | 57.67403 | -42.03107 | 38368 ft | 520 kts | 256° |
| 2026-04-23 04:17 | 57.65206 | -42.15981 | 38368 ft | 520 kts | 256° |
| 2026-04-23 04:18 | 57.62991 | -42.28873 | 38368 ft | 520 kts | 255° |
| 2026-04-23 04:18 | 57.60769 | -42.41709 | 38363 ft | 519 kts | 255° |
| 2026-04-23 04:19 | 57.58549 | -42.54444 | 38358 ft | 519 kts | 255° |
| 2026-04-23 04:19 | 57.56302 | -42.67245 | 38357 ft | 519 kts | 255° |
| 2026-04-23 04:20 | 57.54047 | -42.80002 | 38343 ft | 518 kts | 255° |
| 2026-04-23 04:20 | 57.51785 | -42.92708 | 38347 ft | 516 kts | 254° |
| 2026-04-23 04:21 | 57.49520 | -43.05346 | 38348 ft | 514 kts | 254° |
| 2026-04-23 04:21 | 57.47244 | -43.17960 | 38349 ft | 514 kts | 254° |
| 2026-04-23 04:22 | 57.44974 | -43.30458 | 38343 ft | 514 kts | 254° |
| 2026-04-23 04:22 | 57.42677 | -43.43025 | 38344 ft | 514 kts | 254° |
| 2026-04-23 04:23 | 57.40366 | -43.55579 | 38336 ft | 513 kts | 253° |
| 2026-04-23 04:23 | 57.38050 | -43.68071 | 38340 ft | 512 kts | 253° |
| 2026-04-23 04:24 | 57.35721 | -43.80559 | 38339 ft | 512 kts | 253° |
| 2026-04-23 04:24 | 57.33384 | -43.93005 | 38336 ft | 512 kts | 253° |
| 2026-04-23 04:25 | 57.31029 | -44.05463 | 38330 ft | 512 kts | 253° |
| 2026-04-23 04:25 | 57.28667 | -44.17880 | 38337 ft | 511 kts | 253° |
| 2026-04-23 04:26 | 57.26297 | -44.30259 | 38329 ft | 510 kts | 253° |
| 2026-04-23 04:26 | 57.23920 | -44.42593 | 38328 ft | 509 kts | 252° |
| 2026-04-23 04:27 | 57.21549 | -44.54821 | 38324 ft | 509 kts | 252° |
| 2026-04-23 04:27 | 57.19152 | -44.67106 | 38325 ft | 508 kts | 252° |
| 2026-04-23 04:28 | 57.15538 | -44.85481 | 38317 ft | 508 kts | 252° |
| 2026-04-23 04:28 | 57.13117 | -44.97695 | 38312 ft | 508 kts | 252° |
| 2026-04-23 04:29 | 57.11095 | -45.07838 | 38311 ft | 508 kts | 252° |
| 2026-04-23 04:29 | 57.08653 | -45.20023 | 38307 ft | 508 kts | 251° |
| 2026-04-23 04:30 | 57.06197 | -45.32197 | 38307 ft | 507 kts | 251° |
| 2026-04-23 04:30 | 57.03736 | -45.44326 | 38301 ft | 506 kts | 251° |
| 2026-04-23 04:31 | 57.01263 | -45.56434 | 38301 ft | 506 kts | 251° |
| 2026-04-23 04:31 | 56.98777 | -45.68541 | 38297 ft | 506 kts | 251° |
| 2026-04-23 04:32 | 56.96283 | -45.80607 | 38291 ft | 506 kts | 251° |
| 2026-04-23 04:32 | 56.93780 | -45.92648 | 38290 ft | 504 kts | 250° |
| 2026-04-23 04:33 | 56.91279 | -46.04605 | 38290 ft | 502 kts | 250° |
| 2026-04-23 04:33 | 56.88771 | -46.16529 | 38289 ft | 502 kts | 250° |
| 2026-04-23 04:34 | 56.86255 | -46.28420 | 38291 ft | 502 kts | 250° |
| 2026-04-23 04:34 | 56.83722 | -46.40321 | 38285 ft | 502 kts | 250° |
| 2026-04-23 04:35 | 56.81183 | -46.52179 | 38285 ft | 502 kts | 250° |
| 2026-04-23 04:35 | 56.78625 | -46.64061 | 38278 ft | 502 kts | 250° |
| 2026-04-23 04:36 | 56.76060 | -46.75905 | 38270 ft | 502 kts | 250° |
| 2026-04-23 04:36 | 56.73501 | -46.87655 | 38271 ft | 502 kts | 249° |
| 2026-04-23 04:37 | 56.70913 | -46.99469 | 38268 ft | 502 kts | 249° |
| 2026-04-23 04:37 | 56.68317 | -47.11253 | 38269 ft | 500 kts | 249° |
| 2026-04-23 04:38 | 56.65716 | -47.22994 | 38263 ft | 500 kts | 249° |
| 2026-04-23 04:38 | 56.63107 | -47.34707 | 38262 ft | 499 kts | 249° |
| 2026-04-23 04:39 | 56.60494 | -47.46370 | 38254 ft | 498 kts | 249° |
| 2026-04-23 04:39 | 56.57871 | -47.58012 | 38254 ft | 498 kts | 248° |
| 2026-04-23 04:40 | 56.55243 | -47.69615 | 38246 ft | 498 kts | 248° |
| 2026-04-23 04:40 | 56.52598 | -47.81229 | 38246 ft | 498 kts | 248° |
| 2026-04-23 04:41 | 56.49961 | -47.92743 | 38238 ft | 498 kts | 248° |
| 2026-04-23 04:41 | 56.47295 | -48.04319 | 38238 ft | 498 kts | 248° |
| 2026-04-23 04:42 | 56.44620 | -48.15874 | 38227 ft | 498 kts | 248° |
| 2026-04-23 04:42 | 56.41935 | -48.27410 | 38228 ft | 498 kts | 248° |
| 2026-04-23 04:43 | 56.39238 | -48.38935 | 38223 ft | 498 kts | 247° |
| 2026-04-23 04:43 | 56.36523 | -48.50473 | 38223 ft | 498 kts | 247° |
| 2026-04-23 04:44 | 56.33803 | -48.61970 | 38215 ft | 499 kts | 247° |
| 2026-04-23 04:44 | 56.31080 | -48.73423 | 38212 ft | 496 kts | 246° |
| 2026-04-23 04:45 | 56.28368 | -48.84766 | 38200 ft | 493 kts | 246° |
| 2026-04-23 04:45 | 56.25650 | -48.96077 | 38202 ft | 492 kts | 246° |
| 2026-04-23 04:46 | 56.22939 | -49.07296 | 38195 ft | 492 kts | 246° |
| 2026-04-23 04:46 | 56.20202 | -49.18568 | 38195 ft | 492 kts | 246° |
| 2026-04-23 04:47 | 56.17459 | -49.29805 | 38182 ft | 491 kts | 245° |
| 2026-04-23 04:47 | 56.14711 | -49.41008 | 38173 ft | 490 kts | 245° |
| 2026-04-23 04:48 | 56.11950 | -49.52201 | 38172 ft | 490 kts | 245° |
| 2026-04-23 04:48 | 56.09178 | -49.63388 | 38166 ft | 491 kts | 245° |
| 2026-04-23 04:49 | 56.06396 | -49.74554 | 38177 ft | 490 kts | 244° |
| 2026-04-23 04:49 | 56.03612 | -49.85673 | 38164 ft | 489 kts | 244° |
| 2026-04-23 04:50 | 56.00820 | -49.96769 | 38164 ft | 489 kts | 244° |
| 2026-04-23 04:50 | 55.98055 | -50.07871 | 38140 ft | 489 kts | 244° |
| 2026-04-23 04:51 | 55.95389 | -50.19009 | 38142 ft | 487 kts | 244° |
| 2026-04-23 04:51 | 55.92729 | -50.30094 | 38144 ft | 486 kts | 244° |
| 2026-04-23 04:52 | 55.90051 | -50.41125 | 38133 ft | 484 kts | 244° |
| 2026-04-23 04:52 | 55.87362 | -50.52107 | 38125 ft | 483 kts | 244° |
| 2026-04-23 04:53 | 55.84662 | -50.63066 | 38125 ft | 483 kts | 244° |
| 2026-04-23 04:53 | 55.81970 | -50.73946 | 38119 ft | 484 kts | 243° |
| 2026-04-23 04:54 | 55.79233 | -50.84954 | 38128 ft | 483 kts | 243° |
| 2026-04-23 04:54 | 55.76539 | -50.95738 | 38108 ft | 480 kts | 243° |
| 2026-04-23 04:55 | 55.73823 | -51.06555 | 38108 ft | 479 kts | 243° |
| 2026-04-23 04:55 | 55.71096 | -51.17361 | 38100 ft | 479 kts | 242° |
| 2026-04-23 04:56 | 55.68360 | -51.28146 | 38100 ft | 479 kts | 242° |
| 2026-04-23 04:56 | 55.65620 | -51.38901 | 38094 ft | 478 kts | 242° |
| 2026-04-23 04:57 | 55.62891 | -51.49566 | 38085 ft | 476 kts | 242° |
| 2026-04-23 04:57 | 55.60147 | -51.60232 | 38086 ft | 475 kts | 242° |
| 2026-04-23 04:58 | 55.57400 | -51.70857 | 38086 ft | 475 kts | 242° |
| 2026-04-23 04:58 | 55.54638 | -51.81489 | 38078 ft | 475 kts | 241° |
| 2026-04-23 04:59 | 55.51875 | -51.92081 | 38072 ft | 475 kts | 241° |
| 2026-04-23 04:59 | 55.49097 | -52.02678 | 38064 ft | 475 kts | 241° |
| 2026-04-23 05:00 | 55.46324 | -52.13206 | 38067 ft | 476 kts | 241° |
| 2026-04-23 05:00 | 55.43529 | -52.23766 | 38056 ft | 475 kts | 241° |
| 2026-04-23 05:01 | 55.40724 | -52.34317 | 38053 ft | 475 kts | 241° |
| 2026-04-23 05:01 | 55.37914 | -52.44839 | 38036 ft | 475 kts | 240° |
| 2026-04-23 05:02 | 55.35090 | -52.55363 | 38039 ft | 475 kts | 240° |
| 2026-04-23 05:02 | 55.32261 | -52.65856 | 38024 ft | 474 kts | 239° |
| 2026-04-23 05:03 | 55.29436 | -52.76293 | 38025 ft | 472 kts | 239° |
| 2026-04-23 05:03 | 55.26606 | -52.86694 | 38011 ft | 472 kts | 239° |
| 2026-04-23 05:04 | 55.23764 | -52.97092 | 38014 ft | 472 kts | 239° |
| 2026-04-23 05:04 | 55.20916 | -53.07463 | 38002 ft | 472 kts | 238° |
| 2026-04-23 05:05 | 55.18063 | -53.17807 | 37999 ft | 472 kts | 238° |
| 2026-04-23 05:05 | 55.15215 | -53.28090 | 37989 ft | 472 kts | 238° |
| 2026-04-23 05:06 | 55.12343 | -53.38412 | 37984 ft | 472 kts | 238° |
| 2026-04-23 05:06 | 55.09462 | -53.48718 | 37973 ft | 472 kts | 238° |
| 2026-04-23 05:07 | 55.06567 | -53.59026 | 37974 ft | 473 kts | 237° |
| 2026-04-23 05:07 | 55.03667 | -53.69312 | 37962 ft | 473 kts | 237° |
| 2026-04-23 05:08 | 55.00752 | -53.79602 | 37962 ft | 472 kts | 237° |
| 2026-04-23 05:08 | 54.97834 | -53.89862 | 37955 ft | 471 kts | 237° |
| 2026-04-23 05:09 | 54.94917 | -54.00073 | 37962 ft | 472 kts | 236° |
| 2026-04-23 05:09 | 54.91982 | -54.10290 | 37948 ft | 473 kts | 236° |
| 2026-04-23 05:10 | 54.89533 | -54.18789 | 37954 ft | 473 kts | 236° |
| 2026-04-23 05:10 | 54.86580 | -54.28994 | 37934 ft | 472 kts | 236° |
| 2026-04-23 05:11 | 54.83144 | -54.40818 | 37941 ft | 472 kts | 236° |
| 2026-04-23 05:11 | 54.80172 | -54.50994 | 37930 ft | 473 kts | 235° |
| 2026-04-23 05:12 | 54.77671 | -54.59519 | 37931 ft | 474 kts | 235° |
| 2026-04-23 05:12 | 54.74678 | -54.69685 | 37920 ft | 474 kts | 235° |
| 2026-04-23 05:13 | 54.71698 | -54.79768 | 37922 ft | 474 kts | 235° |
| 2026-04-23 05:14 | 54.67180 | -54.94968 | 37936 ft | 474 kts | 234° |
| 2026-04-23 05:14 | 54.64153 | -55.05093 | 37908 ft | 475 kts | 234° |
| 2026-04-23 05:15 | 54.61117 | -55.15207 | 37908 ft | 475 kts | 234° |
| 2026-04-23 05:15 | 54.58069 | -55.25323 | 37902 ft | 475 kts | 234° |
| 2026-04-23 05:16 | 54.55012 | -55.35424 | 37904 ft | 475 kts | 234° |